Rotterdam — PDGS — position and weather

sailwx.info

Track history (hours):
 
Tides and Currents Weather Stations Pressure Air Temp Water Temp Dewpoint Dewpoint Depression Visibility Wind Speed Wind Dir Waves Ship Positions

Rotterdam

Operator: Holland America Line

Last reported at 2018-May-23 22:31 UTC. Time now 2018-May-23 22:29 UTC.
Position N 63°14' E 007°24'.

Length 228 m; beam 29 m.

Type: Ship. MMSI: 24616700.

Date/timePositionNaut miles runAvg speedWind from/ knotsBaromVisibWave heightAir tempDewpointWater temp
2018-May-23 22:31N 63°14' E 007°24'917.5
2018-May-23 22:00N 63°11' E 007°05'917.6
2018-May-23 21:30N 63°09' E 006°46'917.9
2018-May-23 21:00N 63°07' E 006°27'2417.4
2018-May-23 19:36N 62°53' E 005°43'216.9
2018-May-23 19:28N 62°52' E 005°39'4 9.1
2018-May-23 19:00N 62°48' E 005°36'5 9.2
2018-May-23 18:30N 62°43' E 005°37'5 9.4
2018-May-23 18:00N 62°38' E 005°38'5 9.4
2018-May-23 17:30N 62°34' E 005°39'5 8.9
2018-May-23 16:59N 62°30' E 005°45'713.7
2018-May-23 16:30N 62°27' E 005°58'611.7
2018-May-23 16:01N 62°27' E 006°10'1 1.7
2018-May-23 15:28N 62°28' E 006°09'0 0.0
2018-May-23 14:58N 62°28' E 006°09'0 0.0
2018-May-23 14:28N 62°28' E 006°09'0 0.0
2018-May-23 13:58N 62°28' E 006°09'0 0.0
2018-May-23 13:28N 62°28' E 006°09'0 0.0
2018-May-23 12:58N 62°28' E 006°09'0 0.0
2018-May-23 12:28N 62°28' E 006°09'0 0.0
2018-May-23 11:58N 62°28' E 006°09'0 0.0
2018-May-23 11:28N 62°28' E 006°09'0 0.0
2018-May-23 10:58N 62°28' E 006°09'0 0.0
2018-May-23 10:28N 62°28' E 006°09'0 0.0
2018-May-23 09:58N 62°28' E 006°09'0 0.0
2018-May-23 09:28N 62°28' E 006°09'0 0.0
2018-May-23 08:58N 62°28' E 006°09'0 0.0
2018-May-23 08:28N 62°28' E 006°09'0 0.0
2018-May-23 07:58N 62°28' E 006°09'0 0.0
2018-May-23 07:28N 62°28' E 006°09'0 0.0
2018-May-23 06:58N 62°28' E 006°09'0 0.0
2018-May-23 06:28N 62°28' E 006°09'0 0.0
2018-May-23 05:58N 62°28' E 006°09'0 0.0
2018-May-23 05:28N 62°28' E 006°09'1 1.5
2018-May-23 05:00N 62°28' E 006°11'611.7
2018-May-23 04:31N 62°27' E 005°58'713.2
2018-May-23 04:00N 62°30' E 005°45'714.3
2018-May-23 03:30N 62°28' E 005°30'1733.6
2018-May-23 03:00N 62°18' E 005°00'71490.1 050 / 341023.410.8 8.1 3.9 9.0
2018-May-23 02:59N 62°23' E 005°11'1019.2
2018-May-23 02:29N 62°17' E 004°55'1020.2
2018-May-23 02:00N 62°12' E 004°36'153.3 040 / 431022.810.8 8.1 3.910.0
2018-May-23 01:59N 62°11' E 004°37'7418.9
2018-May-22 22:02N 60°58' E 004°15'120.9
2018-May-22 22:00N 60°57' E 004°16'1020.4
2018-May-22 21:30N 60°52' E 004°34'712.9
2018-May-22 20:59N 60°57' E 004°43'1021.5
2018-May-22 20:30N 61°04' E 004°59'1019.8
2018-May-22 19:59N 61°04' E 005°21'1020.0
2018-May-22 19:30N 61°07' E 005°40'1020.3
2018-May-22 19:00N 61°08' E 006°01'1020.3
2018-May-22 18:30N 61°06' E 006°21'816.5
2018-May-22 18:00N 61°11' E 006°36'815.3
2018-May-22 17:30N 61°09' E 006°52'816.6
2018-May-22 17:00N 61°03' E 007°02'714.2
2018-May-22 16:29N 60°56' E 007°10'4 8.3
2018-May-22 16:00N 60°52' E 007°08'0 0.1
2018-May-22 15:30N 60°52' E 007°08'0 0.5
2018-May-22 15:00N 60°52' E 007°08'0 0.0
2018-May-22 14:30N 60°52' E 007°08'0 0.0
2018-May-22 14:00N 60°52' E 007°08'0 0.0
2018-May-22 13:27N 60°52' E 007°08'0 0.0
2018-May-22 13:00N 60°52' E 007°08'0 0.0
2018-May-22 12:30N 60°52' E 007°08'0 0.0
2018-May-22 12:00N 60°52' E 007°08'4546.8
2018-May-22 12:00N 60°48' E 007°06'4 8.6 360 / 31021.910.8 16.0 3.7 8.9
2018-May-22 11:30N 60°52' E 007°08'0 0.0
2018-May-22 10:57N 60°52' E 007°08'0 0.0
2018-May-22 10:30N 60°52' E 007°08'0 0.0
2018-May-22 10:00N 60°52' E 007°08'0 0.0
2018-May-22 09:30N 60°52' E 007°08'0 0.0
2018-May-22 09:00N 60°52' E 007°08'0 0.0
2018-May-22 08:30N 60°52' E 007°08'0 0.0
2018-May-22 08:00N 60°52' E 007°08'0 0.0
2018-May-22 07:30N 60°52' E 007°08'0 0.0
2018-May-22 07:00N 60°52' E 007°08'0 0.0
2018-May-22 06:30N 60°52' E 007°08'0 0.0
2018-May-22 06:00N 60°52' E 007°08'0 0.0
2018-May-22 05:30N 60°52' E 007°08'0 0.2
2018-May-22 05:00N 60°52' E 007°08'2 4.4
2018-May-22 04:30N 60°54' E 007°09'612.0
2018-May-22 04:00N 60°60' E 007°03'815.3
2018-May-22 03:30N 61°06' E 006°56'815.5
2018-May-22 03:00N 61°11' E 006°42'612.8
2018-May-22 02:30N 61°07' E 006°32'815.9
2018-May-22 02:00N 61°07' E 006°15'917.0
2018-May-22 01:29N 61°08' E 005°57'816.6
2018-May-22 01:00N 61°07' E 005°41'816.4
2018-May-22 00:30N 61°04' E 005°25'816.0
2018-May-22 00:00N 61°06' E 005°10'816.3
2018-May-21 23:30N 61°02' E 004°55'816.3
2018-May-21 23:00N 60°57' E 004°42'612.1
2018-May-21 22:30N 60°51' E 004°37'916.7
2018-May-21 21:59N 60°44' E 004°29'918.4
2018-May-21 21:30N 60°35' E 004°22'3718.6
2018-May-21 19:29N 59°58' E 004°28'918.1
2018-May-21 19:00N 59°49' E 004°30'918.3
2018-May-21 18:31N 59°41' E 004°33'918.1
2018-May-21 18:00N 59°31' E 004°35'917.8
2018-May-21 17:31N 59°23' E 004°37'1017.7
2018-May-21 16:57N 59°13' E 004°41'817.4
2018-May-21 16:30N 59°08' E 004°52'917.4
2018-May-21 16:01N 59°03' E 005°06'816.3
2018-May-21 15:30N 59°05' E 005°21'611.1
2018-May-21 15:00N 59°05' E 005°32'815.5
2018-May-21 14:30N 58°60' E 005°42'1 2.5
2018-May-21 14:00N 58°59' E 005°43'0 0.0
2018-May-21 13:30N 58°59' E 005°43'0 0.0
2018-May-21 13:00N 58°59' E 005°43'0 0.0
2018-May-21 12:30N 58°59' E 005°43'0 0.0
2018-May-21 12:00N 58°59' E 005°43'0 0.0
2018-May-21 11:30N 58°59' E 005°43'0 0.0
2018-May-21 11:00N 58°59' E 005°43'0 0.0
2018-May-21 10:30N 58°59' E 005°43'0 0.0
2018-May-21 10:00N 58°59' E 005°43'0 0.0
2018-May-21 09:30N 58°59' E 005°43'0 0.0
2018-May-21 09:00N 58°59' E 005°43'0 0.0
2018-May-21 08:30N 58°59' E 005°43'0 0.0
2018-May-21 08:00N 58°59' E 005°43'0 0.0
2018-May-21 07:30N 58°59' E 005°43'0 0.0
2018-May-21 07:00N 58°59' E 005°43'0 0.0
2018-May-21 06:30N 58°59' E 005°43'0 0.0
2018-May-21 06:00N 58°59' E 005°43'0 0.0
2018-May-21 05:30N 58°59' E 005°43'0 0.0
2018-May-21 05:00N 58°59' E 005°43'0 0.4
2018-May-21 04:30N 58°59' E 005°43'5 9.5
2018-May-21 04:00N 59°02' E 005°37'271829.5
2018-May-21 04:00N 58°36' E 005°24'2347.2 150 / 141022.910.8 12.2 0.912.0
2018-May-21 03:30N 58°58' E 005°33'714.5
2018-May-21 03:00N 58°51' E 005°30'5 9.9
2018-May-21 02:30N 58°48' E 005°24'612.2
2018-May-21 02:00N 58°42' E 005°25'612.3
2018-May-21 01:31N 58°35' E 005°24'612.5
2018-May-21 01:01N 58°29' E 005°22'611.4
2018-May-21 00:31N 58°24' E 005°23'612.2
2018-May-21 00:00N 58°20' E 005°32'815.8
2018-May-20 23:30N 58°12' E 005°34'611.3
2018-May-20 23:00N 58°06' E 005°34'611.5
2018-May-20 22:30N 58°01' E 005°34'611.7
2018-May-20 22:00N 57°55' E 005°34'612.0
2018-May-20 21:31N 57°49' E 005°34'815.1
2018-May-20 21:00N 57°41' E 005°34'714.7
2018-May-20 20:30N 57°34' E 005°34'612.4
2018-May-20 20:00N 57°28' E 005°34'1512.4
2018-May-20 18:49N 57°13' E 005°34'2812.3
2018-May-20 16:31N 56°45' E 005°35'8112.4
2018-May-20 10:00N 55°24' E 005°30'7913.2 080 / 101024.8 8.9 8.810.0
2018-May-20 04:00N 54°06' E 005°06'2810.8 080 / 81022.9 5.4 10.4 9.912.0
2018-May-20 01:21N 53°39' E 004°52'612.4
2018-May-20 00:52N 53°33' E 004°48'2314.4
2018-May-19 23:16N 53°12' E 004°32'311.6
2018-May-19 22:59N 53°09' E 004°30'612.2
2018-May-19 22:30N 53°04' E 004°25'612.3
2018-May-19 22:00N 52°59' E 004°19'612.3
2018-May-19 21:30N 52°54' E 004°15'612.3
2018-May-19 20:59N 52°48' E 004°10'612.2
2018-May-19 20:30N 52°42' E 004°06'917.5
2018-May-19 19:59N 52°35' E 003°57'816.3
2018-May-19 19:30N 52°28' E 003°54'510.9
2018-May-19 19:00N 52°22' E 003°55'510.9
2018-May-19 18:30N 52°17' E 003°52'611.3
2018-May-19 18:00N 52°11' E 003°54'611.5
2018-May-19 17:30N 52°06' E 003°55'4 8.8
2018-May-19 17:01N 52°02' E 003°57'714.3
2018-May-19 16:31N 51°58' E 004°07'510.0
2018-May-19 16:01N 51°55' E 004°14'4 8.3
2018-May-19 15:30N 51°54' E 004°20'4 7.3
2018-May-19 15:01N 51°54' E 004°26'2 3.8
2018-May-19 14:29N 51°54' E 004°29'0 0.0
2018-May-19 13:59N 51°54' E 004°29'0 0.0
2018-May-19 13:29N 51°54' E 004°29'0 0.0
2018-May-19 12:59N 51°54' E 004°29'0 0.0
2018-May-19 12:29N 51°54' E 004°29'0 0.0
2018-May-19 11:59N 51°54' E 004°29'0 0.0
2018-May-19 11:29N 51°54' E 004°29'0 0.0
2018-May-19 10:59N 51°54' E 004°29'0 0.0
2018-May-19 10:29N 51°54' E 004°29'0 0.0
2018-May-19 09:59N 51°54' E 004°29'0 0.0
2018-May-19 09:29N 51°54' E 004°29'0 0.0
2018-May-19 08:59N 51°54' E 004°29'0 0.0
2018-May-19 08:29N 51°54' E 004°29'0 0.0
2018-May-19 07:59N 51°54' E 004°29'0 0.0
2018-May-19 07:29N 51°54' E 004°29'0 0.0
2018-May-19 06:59N 51°54' E 004°29'0 0.0
2018-May-19 06:29N 51°54' E 004°29'0 0.0
2018-May-19 05:59N 51°54' E 004°29'0 0.0
2018-May-19 05:29N 51°54' E 004°29'0 0.0
2018-May-19 04:59N 51°54' E 004°29'0 0.0
2018-May-19 04:29N 51°54' E 004°29'0 0.0
2018-May-19 03:59N 51°54' E 004°29'0 0.0
2018-May-19 03:29N 51°54' E 004°29'0 0.6
2018-May-19 03:00N 51°54' E 004°29'2 3.2
2018-May-19 02:30N 51°54' E 004°26'3 6.7
2018-May-19 02:00N 51°54' E 004°21'4 8.7
2018-May-19 01:30N 51°55' E 004°14'611.8
2018-May-19 01:00N 51°59' E 004°06'714.2
2018-May-19 00:31N 52°01' E 003°55'612.8
2018-May-19 00:01N 52°03' E 003°46'816.5
2018-May-18 23:31N 52°12' E 003°46'816.6
2018-May-18 23:01N 52°20' E 003°48'816.8
2018-May-18 22:31N 52°28' E 003°50'916.7
2018-May-18 22:00N 52°37' E 003°52'816.5
2018-May-18 21:30N 52°44' E 003°55'917.5
2018-May-18 20:58N 52°54' E 003°58'1217.3
2018-May-18 20:15N 53°04' E 004°11'516.9
2018-May-18 19:56N 53°08' E 004°17'716.6
2018-May-18 19:30N 53°13' E 004°24'816.6
2018-May-18 19:00N 53°21' E 004°30'916.8
2018-May-18 18:30N 53°29' E 004°34'817.2
2018-May-18 18:00N 53°37' E 004°39'1518.2
2018-May-18 17:11N 53°50' E 004°50'418.6
2018-May-18 16:59N 53°53' E 004°52'1018.6
2018-May-18 16:26N 54°03' E 004°58'818.6
2018-May-18 16:00N 54°11' E 005°03'1018.5
2018-May-18 15:28N 54°20' E 005°09'1018.5
2018-May-18 14:56N 54°29' E 005°16'918.5
2018-May-18 14:27N 54°37' E 005°23'7914.5
2018-May-18 09:00N 55°48' E 006°24'8120.2 350 / 141018.310.8 11.3 5.810.0
2018-May-18 05:00N 57°00' E 007°30'6616.7 050 / 181017.410.8 12.5 5.911.0
2018-May-18 01:02N 57°55' E 008°37'016.0
2018-May-18 01:00N 57°56' E 008°37'816.0
2018-May-18 00:30N 58°02' E 008°46'815.9
2018-May-18 00:00N 58°08' E 008°56'816.7
2018-May-17 23:31N 58°14' E 009°07'2417.8
2018-May-17 22:11N 58°32' E 009°37'316.0
2018-May-17 22:00N 58°34' E 009°41'815.9
2018-May-17 21:30N 58°40' E 009°51'815.9
2018-May-17 21:01N 58°45' E 010°02'918.5
2018-May-17 20:31N 58°51' E 010°15'816.4
2018-May-17 20:01N 58°57' E 010°27'815.5
2018-May-17 19:30N 59°04' E 010°35'714.9
2018-May-17 19:00N 59°11' E 010°38'918.6
2018-May-17 18:30N 59°20' E 010°35'918.1
2018-May-17 18:01N 59°29' E 010°34'917.2
2018-May-17 17:30N 59°38' E 010°37'611.4
2018-May-17 17:00N 59°43' E 010°34'815.6
2018-May-17 16:30N 59°51' E 010°36'5 9.9
2018-May-17 16:00N 59°54' E 010°43'1 1.1
2018-May-17 15:28N 59°54' E 010°44'0 0.0
2018-May-17 14:58N 59°54' E 010°44'0 0.0
2018-May-17 14:28N 59°54' E 010°44'0 0.0
2018-May-17 13:58N 59°54' E 010°44'0 0.0
2018-May-17 13:28N 59°54' E 010°44'0 0.0
2018-May-17 12:58N 59°54' E 010°44'0 0.0
2018-May-17 12:28N 59°54' E 010°44'0 0.0
2018-May-17 11:58N 59°54' E 010°44'0 0.0
2018-May-17 11:28N 59°54' E 010°44'0 0.0
2018-May-17 10:58N 59°54' E 010°44'0 0.0
2018-May-17 10:28N 59°54' E 010°44'0 0.0
2018-May-17 09:58N 59°54' E 010°44'0 0.0
2018-May-17 09:28N 59°54' E 010°44'0 0.0
2018-May-17 08:58N 59°54' E 010°44'0 0.0
2018-May-17 08:28N 59°54' E 010°44'0 0.0
2018-May-17 07:58N 59°54' E 010°44'0 0.0
2018-May-17 07:28N 59°54' E 010°44'0 0.0
2018-May-17 06:58N 59°54' E 010°44'0 0.0
2018-May-17 06:28N 59°54' E 010°44'0 0.0
2018-May-17 05:58N 59°54' E 010°44'0 0.0
2018-May-17 05:30N 59°54' E 010°44'1 2.1
2018-May-17 05:01N 59°54' E 010°42'4 8.3
2018-May-17 04:30N 59°51' E 010°37'5 9.7
2018-May-17 04:00N 59°46' E 010°35'5 9.8
2018-May-17 03:30N 59°41' E 010°36'713.7
2018-May-17 03:01N 59°34' E 010°38'816.5
2018-May-17 02:30N 59°26' E 010°34'816.8
2018-May-17 02:01N 59°18' E 010°36'816.6
2018-May-17 01:31N 59°10' E 010°39'612.1
2018-May-17 01:01N 59°04' E 010°35'5 9.9
2018-May-17 00:30N 58°60' E 010°32'713.4
2018-May-17 00:00N 58°55' E 010°23'714.7
2018-May-16 23:30N 58°49' E 010°15'714.3
2018-May-16 23:00N 58°43' E 010°06'612.1
2018-May-16 22:30N 58°38' E 009°59'612.7
2018-May-16 22:00N 58°33' E 009°51'715.1
2018-May-16 21:30N 58°28' E 009°42'714.3
2018-May-16 21:00N 58°22' E 009°33'612.6
2018-May-16 20:30N 58°18' E 009°25'612.4
2018-May-16 20:01N 58°13' E 009°17'612.7
2018-May-16 19:31N 58°08' E 009°10'612.8
2018-May-16 19:01N 58°03' E 009°01'713.3
2018-May-16 18:31N 57°58' E 008°53'612.8
2018-May-16 18:01N 57°57' E 008°41'713.4
2018-May-16 17:30N 57°59' E 008°29'713.6
2018-May-16 17:01N 58°02' E 008°17'713.3
2018-May-16 16:30N 58°04' E 008°05'510.1
2018-May-16 16:00N 58°08' E 007°59'0 0.5
2018-May-16 15:29N 58°08' E 007°60'0 0.0
2018-May-16 14:59N 58°08' E 007°60'0 0.0
2018-May-16 14:29N 58°08' E 007°60'0 0.0
2018-May-16 13:59N 58°08' E 007°60'0 0.0
2018-May-16 13:29N 58°08' E 007°60'0 0.0
2018-May-16 12:59N 58°08' E 007°60'0 0.0
2018-May-16 12:29N 58°08' E 007°60'0 0.0
2018-May-16 11:59N 58°08' E 007°60'0 0.0
2018-May-16 11:29N 58°08' E 007°60'0 0.0
2018-May-16 10:59N 58°08' E 007°60'0 0.0
2018-May-16 10:29N 58°08' E 007°60'0 0.0
2018-May-16 09:59N 58°08' E 007°60'0 0.0
2018-May-16 09:29N 58°08' E 007°60'0 0.0
2018-May-16 08:59N 58°08' E 007°60'0 0.0
2018-May-16 08:29N 58°08' E 007°60'0 0.0
2018-May-16 07:59N 58°08' E 007°60'0 0.0
2018-May-16 07:29N 58°08' E 007°60'0 0.0
2018-May-16 06:59N 58°08' E 007°60'0 0.0
2018-May-16 06:29N 58°08' E 007°60'0 0.0
2018-May-16 05:59N 58°08' E 007°60'0 0.0
2018-May-16 05:29N 58°08' E 007°60'1 1.3
2018-May-16 05:00N 58°08' E 007°60'511.1
2018-May-16 04:30N 58°03' E 008°06'510.1
2018-May-16 04:00N 57°58' E 008°05'612.6
2018-May-16 03:30N 57°56' E 007°54'612.4
2018-May-16 03:00N 57°53' E 007°43'169.1
2018-May-16 03:00N 57°54' E 007°42'611.5 280 / 141015.5 5.4 11.311.114.0
2018-May-16 02:30N 57°52' E 007°32'612.5
2018-May-16 02:00N 57°52' E 007°20'612.0
2018-May-16 01:30N 57°52' E 007°09'612.1
2018-May-16 01:00N 57°53' E 006°58'612.4
2018-May-16 00:30N 57°56' E 006°47'612.4
2018-May-16 00:00N 57°58' E 006°36'5488.3
2018-May-16 00:00N 57°54' E 006°30'613.2 320 / 151017.5 1.1 10.310.112.0
2018-May-15 23:30N 57°60' E 006°25'612.3
2018-May-15 23:00N 58°02' E 006°15'611.8
2018-May-15 22:30N 58°05' E 006°04'713.9
2018-May-15 22:01N 58°08' E 005°53'611.9
2018-May-15 21:30N 58°10' E 005°43'612.4
2018-May-15 21:01N 58°14' E 005°33'612.6
2018-May-15 20:30N 58°17' E 005°22'612.2
2018-May-15 19:59N 58°21' E 005°13'714.8
2018-May-15 19:30N 58°28' E 005°07'815.9
2018-May-15 19:00N 58°35' E 005°13'611.4
2018-May-15 18:30N 58°41' E 005°15'611.0
2018-May-15 18:00N 58°46' E 005°19'510.9
2018-May-15 17:30N 58°50' E 005°27'611.8
2018-May-15 17:00N 58°55' E 005°32'815.9
2018-May-15 16:30N 59°03' E 005°33'611.5
2018-May-15 16:00N 58°59' E 005°42'1 2.4
2018-May-15 15:30N 58°58' E 005°44'0 0.0
2018-May-15 15:00N 58°58' E 005°44'0 0.0
2018-May-15 14:30N 58°58' E 005°44'0 0.0
2018-May-15 14:00N 58°58' E 005°44'0 0.0
2018-May-15 13:30N 58°58' E 005°44'0 0.0
2018-May-15 13:00N 58°58' E 005°44'0 0.0
2018-May-15 12:30N 58°58' E 005°44'0 0.0
2018-May-15 12:00N 58°58' E 005°44'0 0.0
2018-May-15 11:30N 58°58' E 005°44'0 0.0
2018-May-15 11:00N 58°58' E 005°44'0 0.0
2018-May-15 10:30N 58°58' E 005°44'0 0.0
2018-May-15 10:00N 58°58' E 005°44'0 0.0
2018-May-15 09:30N 58°58' E 005°44'0 0.0
2018-May-15 09:00N 58°58' E 005°44'0 0.0
2018-May-15 08:30N 58°58' E 005°44'0 0.0
2018-May-15 08:00N 58°58' E 005°44'0 0.0
2018-May-15 07:30N 58°58' E 005°44'0 0.0
2018-May-15 07:00N 58°58' E 005°44'0 0.0
2018-May-15 06:30N 58°58' E 005°44'0 0.0
2018-May-15 06:00N 58°58' E 005°44'0 0.5
2018-May-15 05:30N 58°59' E 005°44'3 6.0
2018-May-15 04:59N 59°01' E 005°40'817.4
2018-May-15 04:30N 59°06' E 005°28'815.8
2018-May-15 04:00N 59°03' E 005°14'714.8
2018-May-15 03:31N 59°04' E 005°00'918.0
2018-May-15 03:00N 59°10' E 004°47'4936.7
2018-May-15 03:00N 59°06' E 004°48'1325.9 100 / 131019.2 10.810.511.0
2018-May-15 02:30N 59°18' E 004°39'918.4
2018-May-15 01:59N 59°27' E 004°36'918.1
2018-May-15 01:30N 59°36' E 004°34'1119.7
2018-May-15 00:58N 59°46' E 004°32'1020.8
2018-May-15 00:29N 59°56' E 004°30'2820.8
2018-May-14 23:09N 60°24' E 004°25'320.2
2018-May-14 22:59N 60°27' E 004°26'918.2
2018-May-14 22:30N 60°36' E 004°28'917.3
2018-May-14 22:00N 60°44' E 004°32'917.2
2018-May-14 21:30N 60°52' E 004°39'815.5
2018-May-14 21:00N 60°59' E 004°46'918.6
2018-May-14 20:30N 61°05' E 005°02'917.3
2018-May-14 20:00N 61°04' E 005°20'917.7
2018-May-14 19:30N 61°07' E 005°38'918.0
2018-May-14 19:00N 61°08' E 005°56'918.0
2018-May-14 18:30N 61°07' E 006°14'816.9
2018-May-14 18:00N 61°07' E 006°32'713.3
2018-May-14 17:30N 61°10' E 006°44'816.8
2018-May-14 17:00N 61°06' E 006°59'816.7
2018-May-14 16:30N 60°58' E 007°06'611.5
2018-May-14 16:00N 60°52' E 007°08'1 1.3
2018-May-14 15:30N 60°52' E 007°07'0 0.0
2018-May-14 14:59N 60°52' E 007°07'0 0.0
2018-May-14 14:29N 60°52' E 007°07'0 0.0
2018-May-14 13:59N 60°52' E 007°07'0 0.0
2018-May-14 13:29N 60°52' E 007°07'0 0.0
2018-May-14 13:00N 60°52' E 007°07'0 0.0
2018-May-14 12:30N 60°52' E 007°07'0 0.0
2018-May-14 12:00N 60°52' E 007°07'0 0.0
2018-May-14 11:30N 60°52' E 007°07'0 0.0
2018-May-14 11:00N 60°52' E 007°07'0 0.0
2018-May-14 10:29N 60°52' E 007°07'0 0.0
2018-May-14 10:00N 60°52' E 007°07'0 0.0
2018-May-14 09:29N 60°52' E 007°07'0 0.0
2018-May-14 08:59N 60°52' E 007°07'0 0.0
2018-May-14 08:29N 60°52' E 007°07'0 0.0
2018-May-14 07:59N 60°52' E 007°07'0 0.0
2018-May-14 07:29N 60°52' E 007°07'0 0.0
2018-May-14 06:59N 60°52' E 007°07'0 0.0
2018-May-14 06:30N 60°52' E 007°07'0 0.0
2018-May-14 05:59N 60°52' E 007°07'0 0.0
2018-May-14 05:29N 60°52' E 007°07'0 0.0
2018-May-14 04:59N 60°52' E 007°07'1 2.7
2018-May-14 04:30N 60°53' E 007°09'510.7
2018-May-14 04:00N 60°58' E 007°05'3731.0
2018-May-14 04:00N 61°00' E 007°00'612.2 160 / 121019.6 5.4 12.1 3.810.5
2018-May-14 03:30N 61°06' E 006°58'917.1
2018-May-14 03:00N 61°10' E 006°43'713.6
2018-May-14 02:30N 61°07' E 006°31'917.0
2018-May-14 01:59N 61°07' E 006°13'817.3
2018-May-14 01:30N 61°08' E 005°55'817.0
2018-May-14 01:00N 61°07' E 005°38'816.8
2018-May-14 00:30N 61°04' E 005°22'816.5
2018-May-14 00:00N 61°05' E 005°05'917.7
2018-May-13 23:30N 61°00' E 004°49'816.9
2018-May-13 23:00N 60°54' E 004°39'  
Track history (hours):
 
Tides and Currents Weather Stations Pressure Air Temp Water Temp Dewpoint Dewpoint Depression Visibility Wind Speed Wind Dir Waves Ship Positions

Rotterdam

Operator: Holland America Line

Last reported at 2018-May-23 22:31 UTC. Time now 2018-May-23 22:29 UTC.
Position N 63°14' E 007°24'.

Length 228 m; beam 29 m.

Type: Ship. MMSI: 24616700.

Date/timePositionNaut miles runAvg speedWind from/ knotsBaromVisibWave heightAir tempDewpointWater temp
2018-May-23 22:31N 63°14' E 007°24'917.5
2018-May-23 22:00N 63°11' E 007°05'917.6
2018-May-23 21:30N 63°09' E 006°46'917.9
2018-May-23 21:00N 63°07' E 006°27'2417.4
2018-May-23 19:36N 62°53' E 005°43'216.9
2018-May-23 19:28N 62°52' E 005°39'4 9.1
2018-May-23 19:00N 62°48' E 005°36'5 9.2
2018-May-23 18:30N 62°43' E 005°37'5 9.4
2018-May-23 18:00N 62°38' E 005°38'5 9.4
2018-May-23 17:30N 62°34' E 005°39'5 8.9
2018-May-23 16:59N 62°30' E 005°45'713.7
2018-May-23 16:30N 62°27' E 005°58'611.7
2018-May-23 16:01N 62°27' E 006°10'1 1.7
2018-May-23 15:28N 62°28' E 006°09'0 0.0
2018-May-23 14:58N 62°28' E 006°09'0 0.0
2018-May-23 14:28N 62°28' E 006°09'0 0.0
2018-May-23 13:58N 62°28' E 006°09'0 0.0
2018-May-23 13:28N 62°28' E 006°09'0 0.0
2018-May-23 12:58N 62°28' E 006°09'0 0.0
2018-May-23 12:28N 62°28' E 006°09'0 0.0
2018-May-23 11:58N 62°28' E 006°09'0 0.0
2018-May-23 11:28N 62°28' E 006°09'0 0.0
2018-May-23 10:58N 62°28' E 006°09'0 0.0
2018-May-23 10:28N 62°28' E 006°09'0 0.0
2018-May-23 09:58N 62°28' E 006°09'0 0.0
2018-May-23 09:28N 62°28' E 006°09'0 0.0
2018-May-23 08:58N 62°28' E 006°09'0 0.0
2018-May-23 08:28N 62°28' E 006°09'0 0.0
2018-May-23 07:58N 62°28' E 006°09'0 0.0
2018-May-23 07:28N 62°28' E 006°09'0 0.0
2018-May-23 06:58N 62°28' E 006°09'0 0.0
2018-May-23 06:28N 62°28' E 006°09'0 0.0
2018-May-23 05:58N 62°28' E 006°09'0 0.0
2018-May-23 05:28N 62°28' E 006°09'1 1.5
2018-May-23 05:00N 62°28' E 006°11'611.7
2018-May-23 04:31N 62°27' E 005°58'713.2
2018-May-23 04:00N 62°30' E 005°45'714.3
2018-May-23 03:30N 62°28' E 005°30'1733.6
2018-May-23 03:00N 62°18' E 005°00'71490.1 050 / 341023.410.8 8.1 3.9 9.0
2018-May-23 02:59N 62°23' E 005°11'1019.2
2018-May-23 02:29N 62°17' E 004°55'1020.2
2018-May-23 02:00N 62°12' E 004°36'153.3 040 / 431022.810.8 8.1 3.910.0
2018-May-23 01:59N 62°11' E 004°37'7418.9
2018-May-22 22:02N 60°58' E 004°15'120.9
2018-May-22 22:00N 60°57' E 004°16'1020.4
2018-May-22 21:30N 60°52' E 004°34'712.9
2018-May-22 20:59N 60°57' E 004°43'1021.5
2018-May-22 20:30N 61°04' E 004°59'1019.8
2018-May-22 19:59N 61°04' E 005°21'1020.0
2018-May-22 19:30N 61°07' E 005°40'1020.3
2018-May-22 19:00N 61°08' E 006°01'1020.3
2018-May-22 18:30N 61°06' E 006°21'816.5
2018-May-22 18:00N 61°11' E 006°36'815.3
2018-May-22 17:30N 61°09' E 006°52'816.6
2018-May-22 17:00N 61°03' E 007°02'714.2
2018-May-22 16:29N 60°56' E 007°10'4 8.3
2018-May-22 16:00N 60°52' E 007°08'0 0.1
2018-May-22 15:30N 60°52' E 007°08'0 0.5
2018-May-22 15:00N 60°52' E 007°08'0 0.0
2018-May-22 14:30N 60°52' E 007°08'0 0.0
2018-May-22 14:00N 60°52' E 007°08'0 0.0
2018-May-22 13:27N 60°52' E 007°08'0 0.0
2018-May-22 13:00N 60°52' E 007°08'0 0.0
2018-May-22 12:30N 60°52' E 007°08'0 0.0
2018-May-22 12:00N 60°52' E 007°08'4546.8
2018-May-22 12:00N 60°48' E 007°06'4 8.6 360 / 31021.910.8 16.0 3.7 8.9
2018-May-22 11:30N 60°52' E 007°08'0 0.0
2018-May-22 10:57N 60°52' E 007°08'0 0.0
2018-May-22 10:30N 60°52' E 007°08'0 0.0
2018-May-22 10:00N 60°52' E 007°08'0 0.0
2018-May-22 09:30N 60°52' E 007°08'0 0.0
2018-May-22 09:00N 60°52' E 007°08'0 0.0
2018-May-22 08:30N 60°52' E 007°08'0 0.0
2018-May-22 08:00N 60°52' E 007°08'0 0.0
2018-May-22 07:30N 60°52' E 007°08'0 0.0
2018-May-22 07:00N 60°52' E 007°08'0 0.0
2018-May-22 06:30N 60°52' E 007°08'0 0.0
2018-May-22 06:00N 60°52' E 007°08'0 0.0
2018-May-22 05:30N 60°52' E 007°08'0 0.2
2018-May-22 05:00N 60°52' E 007°08'2 4.4
2018-May-22 04:30N 60°54' E 007°09'612.0
2018-May-22 04:00N 60°60' E 007°03'815.3
2018-May-22 03:30N 61°06' E 006°56'815.5
2018-May-22 03:00N 61°11' E 006°42'612.8
2018-May-22 02:30N 61°07' E 006°32'815.9
2018-May-22 02:00N 61°07' E 006°15'917.0
2018-May-22 01:29N 61°08' E 005°57'816.6
2018-May-22 01:00N 61°07' E 005°41'816.4
2018-May-22 00:30N 61°04' E 005°25'816.0
2018-May-22 00:00N 61°06' E 005°10'816.3
2018-May-21 23:30N 61°02' E 004°55'816.3
2018-May-21 23:00N 60°57' E 004°42'612.1
2018-May-21 22:30N 60°51' E 004°37'916.7
2018-May-21 21:59N 60°44' E 004°29'918.4
2018-May-21 21:30N 60°35' E 004°22'3718.6
2018-May-21 19:29N 59°58' E 004°28'918.1
2018-May-21 19:00N 59°49' E 004°30'918.3
2018-May-21 18:31N 59°41' E 004°33'918.1
2018-May-21 18:00N 59°31' E 004°35'917.8
2018-May-21 17:31N 59°23' E 004°37'1017.7
2018-May-21 16:57N 59°13' E 004°41'817.4
2018-May-21 16:30N 59°08' E 004°52'917.4
2018-May-21 16:01N 59°03' E 005°06'816.3
2018-May-21 15:30N 59°05' E 005°21'611.1
2018-May-21 15:00N 59°05' E 005°32'815.5
2018-May-21 14:30N 58°60' E 005°42'1 2.5
2018-May-21 14:00N 58°59' E 005°43'0 0.0
2018-May-21 13:30N 58°59' E 005°43'0 0.0
2018-May-21 13:00N 58°59' E 005°43'0 0.0
2018-May-21 12:30N 58°59' E 005°43'0 0.0
2018-May-21 12:00N 58°59' E 005°43'0 0.0
2018-May-21 11:30N 58°59' E 005°43'0 0.0
2018-May-21 11:00N 58°59' E 005°43'0 0.0
2018-May-21 10:30N 58°59' E 005°43'0 0.0
2018-May-21 10:00N 58°59' E 005°43'0 0.0
2018-May-21 09:30N 58°59' E 005°43'0 0.0
2018-May-21 09:00N 58°59' E 005°43'0 0.0
2018-May-21 08:30N 58°59' E 005°43'0 0.0
2018-May-21 08:00N 58°59' E 005°43'0 0.0
2018-May-21 07:30N 58°59' E 005°43'0 0.0
2018-May-21 07:00N 58°59' E 005°43'0 0.0
2018-May-21 06:30N 58°59' E 005°43'0 0.0
2018-May-21 06:00N 58°59' E 005°43'0 0.0
2018-May-21 05:30N 58°59' E 005°43'0 0.0
2018-May-21 05:00N 58°59' E 005°43'0 0.4
2018-May-21 04:30N 58°59' E 005°43'5 9.5
2018-May-21 04:00N 59°02' E 005°37'271829.5
2018-May-21 04:00N 58°36' E 005°24'2347.2 150 / 141022.910.8 12.2 0.912.0
2018-May-21 03:30N 58°58' E 005°33'714.5
2018-May-21 03:00N 58°51' E 005°30'5 9.9
2018-May-21 02:30N 58°48' E 005°24'612.2
2018-May-21 02:00N 58°42' E 005°25'612.3
2018-May-21 01:31N 58°35' E 005°24'612.5
2018-May-21 01:01N 58°29' E 005°22'611.4
2018-May-21 00:31N 58°24' E 005°23'612.2
2018-May-21 00:00N 58°20' E 005°32'815.8
2018-May-20 23:30N 58°12' E 005°34'611.3
2018-May-20 23:00N 58°06' E 005°34'611.5
2018-May-20 22:30N 58°01' E 005°34'611.7
2018-May-20 22:00N 57°55' E 005°34'612.0
2018-May-20 21:31N 57°49' E 005°34'815.1
2018-May-20 21:00N 57°41' E 005°34'714.7
2018-May-20 20:30N 57°34' E 005°34'612.4
2018-May-20 20:00N 57°28' E 005°34'1512.4
2018-May-20 18:49N 57°13' E 005°34'2812.3
2018-May-20 16:31N 56°45' E 005°35'8112.4
2018-May-20 10:00N 55°24' E 005°30'7913.2 080 / 101024.8 8.9 8.810.0
2018-May-20 04:00N 54°06' E 005°06'2810.8 080 / 81022.9 5.4 10.4 9.912.0
2018-May-20 01:21N 53°39' E 004°52'612.4
2018-May-20 00:52N 53°33' E 004°48'2314.4
2018-May-19 23:16N 53°12' E 004°32'311.6
2018-May-19 22:59N 53°09' E 004°30'612.2
2018-May-19 22:30N 53°04' E 004°25'612.3
2018-May-19 22:00N 52°59' E 004°19'612.3
2018-May-19 21:30N 52°54' E 004°15'612.3
2018-May-19 20:59N 52°48' E 004°10'612.2
2018-May-19 20:30N 52°42' E 004°06'917.5
2018-May-19 19:59N 52°35' E 003°57'816.3
2018-May-19 19:30N 52°28' E 003°54'510.9
2018-May-19 19:00N 52°22' E 003°55'510.9
2018-May-19 18:30N 52°17' E 003°52'611.3
2018-May-19 18:00N 52°11' E 003°54'611.5
2018-May-19 17:30N 52°06' E 003°55'4 8.8
2018-May-19 17:01N 52°02' E 003°57'714.3
2018-May-19 16:31N 51°58' E 004°07'510.0
2018-May-19 16:01N 51°55' E 004°14'4 8.3
2018-May-19 15:30N 51°54' E 004°20'4 7.3
2018-May-19 15:01N 51°54' E 004°26'2 3.8
2018-May-19 14:29N 51°54' E 004°29'0 0.0
2018-May-19 13:59N 51°54' E 004°29'0 0.0
2018-May-19 13:29N 51°54' E 004°29'0 0.0
2018-May-19 12:59N 51°54' E 004°29'0 0.0
2018-May-19 12:29N 51°54' E 004°29'0 0.0
2018-May-19 11:59N 51°54' E 004°29'0 0.0
2018-May-19 11:29N 51°54' E 004°29'0 0.0
2018-May-19 10:59N 51°54' E 004°29'0 0.0
2018-May-19 10:29N 51°54' E 004°29'0 0.0
2018-May-19 09:59N 51°54' E 004°29'0 0.0
2018-May-19 09:29N 51°54' E 004°29'0 0.0
2018-May-19 08:59N 51°54' E 004°29'0 0.0
2018-May-19 08:29N 51°54' E 004°29'0 0.0
2018-May-19 07:59N 51°54' E 004°29'0 0.0
2018-May-19 07:29N 51°54' E 004°29'0 0.0
2018-May-19 06:59N 51°54' E 004°29'0 0.0
2018-May-19 06:29N 51°54' E 004°29'0 0.0
2018-May-19 05:59N 51°54' E 004°29'0 0.0
2018-May-19 05:29N 51°54' E 004°29'0 0.0
2018-May-19 04:59N 51°54' E 004°29'0 0.0
2018-May-19 04:29N 51°54' E 004°29'0 0.0
2018-May-19 03:59N 51°54' E 004°29'0 0.0
2018-May-19 03:29N 51°54' E 004°29'0 0.6
2018-May-19 03:00N 51°54' E 004°29'2 3.2
2018-May-19 02:30N 51°54' E 004°26'3 6.7
2018-May-19 02:00N 51°54' E 004°21'4 8.7
2018-May-19 01:30N 51°55' E 004°14'611.8
2018-May-19 01:00N 51°59' E 004°06'714.2
2018-May-19 00:31N 52°01' E 003°55'612.8
2018-May-19 00:01N 52°03' E 003°46'816.5
2018-May-18 23:31N 52°12' E 003°46'816.6
2018-May-18 23:01N 52°20' E 003°48'816.8
2018-May-18 22:31N 52°28' E 003°50'916.7
2018-May-18 22:00N 52°37' E 003°52'816.5
2018-May-18 21:30N 52°44' E 003°55'917.5
2018-May-18 20:58N 52°54' E 003°58'1217.3
2018-May-18 20:15N 53°04' E 004°11'516.9
2018-May-18 19:56N 53°08' E 004°17'716.6
2018-May-18 19:30N 53°13' E 004°24'816.6
2018-May-18 19:00N 53°21' E 004°30'916.8
2018-May-18 18:30N 53°29' E 004°34'817.2
2018-May-18 18:00N 53°37' E 004°39'1518.2
2018-May-18 17:11N 53°50' E 004°50'418.6
2018-May-18 16:59N 53°53' E 004°52'1018.6
2018-May-18 16:26N 54°03' E 004°58'818.6
2018-May-18 16:00N 54°11' E 005°03'1018.5
2018-May-18 15:28N 54°20' E 005°09'1018.5
2018-May-18 14:56N 54°29' E 005°16'918.5
2018-May-18 14:27N 54°37' E 005°23'7914.5
2018-May-18 09:00N 55°48' E 006°24'8120.2 350 / 141018.310.8 11.3 5.810.0
2018-May-18 05:00N 57°00' E 007°30'6616.7 050 / 181017.410.8 12.5 5.911.0
2018-May-18 01:02N 57°55' E 008°37'016.0
2018-May-18 01:00N 57°56' E 008°37'816.0
2018-May-18 00:30N 58°02' E 008°46'815.9
2018-May-18 00:00N 58°08' E 008°56'816.7
2018-May-17 23:31N 58°14' E 009°07'2417.8
2018-May-17 22:11N 58°32' E 009°37'316.0
2018-May-17 22:00N 58°34' E 009°41'815.9
2018-May-17 21:30N 58°40' E 009°51'815.9
2018-May-17 21:01N 58°45' E 010°02'918.5
2018-May-17 20:31N 58°51' E 010°15'816.4
2018-May-17 20:01N 58°57' E 010°27'815.5
2018-May-17 19:30N 59°04' E 010°35'714.9
2018-May-17 19:00N 59°11' E 010°38'918.6
2018-May-17 18:30N 59°20' E 010°35'918.1
2018-May-17 18:01N 59°29' E 010°34'917.2
2018-May-17 17:30N 59°38' E 010°37'611.4
2018-May-17 17:00N 59°43' E 010°34'815.6
2018-May-17 16:30N 59°51' E 010°36'5 9.9
2018-May-17 16:00N 59°54' E 010°43'1 1.1
2018-May-17 15:28N 59°54' E 010°44'0 0.0
2018-May-17 14:58N 59°54' E 010°44'0 0.0
2018-May-17 14:28N 59°54' E 010°44'0 0.0
2018-May-17 13:58N 59°54' E 010°44'0 0.0
2018-May-17 13:28N 59°54' E 010°44'0 0.0
2018-May-17 12:58N 59°54' E 010°44'0 0.0
2018-May-17 12:28N 59°54' E 010°44'0 0.0
2018-May-17 11:58N 59°54' E 010°44'0 0.0
2018-May-17 11:28N 59°54' E 010°44'0 0.0
2018-May-17 10:58N 59°54' E 010°44'0 0.0
2018-May-17 10:28N 59°54' E 010°44'0 0.0
2018-May-17 09:58N 59°54' E 010°44'0 0.0
2018-May-17 09:28N 59°54' E 010°44'0 0.0
2018-May-17 08:58N 59°54' E 010°44'0 0.0
2018-May-17 08:28N 59°54' E 010°44'0 0.0
2018-May-17 07:58N 59°54' E 010°44'0 0.0
2018-May-17 07:28N 59°54' E 010°44'0 0.0
2018-May-17 06:58N 59°54' E 010°44'0 0.0
2018-May-17 06:28N 59°54' E 010°44'0 0.0
2018-May-17 05:58N 59°54' E 010°44'0 0.0
2018-May-17 05:30N 59°54' E 010°44'1 2.1
2018-May-17 05:01N 59°54' E 010°42'4 8.3
2018-May-17 04:30N 59°51' E 010°37'5 9.7
2018-May-17 04:00N 59°46' E 010°35'5 9.8
2018-May-17 03:30N 59°41' E 010°36'713.7
2018-May-17 03:01N 59°34' E 010°38'816.5
2018-May-17 02:30N 59°26' E 010°34'816.8
2018-May-17 02:01N 59°18' E 010°36'816.6
2018-May-17 01:31N 59°10' E 010°39'612.1
2018-May-17 01:01N 59°04' E 010°35'5 9.9
2018-May-17 00:30N 58°60' E 010°32'713.4
2018-May-17 00:00N 58°55' E 010°23'714.7
2018-May-16 23:30N 58°49' E 010°15'714.3
2018-May-16 23:00N 58°43' E 010°06'612.1
2018-May-16 22:30N 58°38' E 009°59'612.7
2018-May-16 22:00N 58°33' E 009°51'715.1
2018-May-16 21:30N 58°28' E 009°42'714.3
2018-May-16 21:00N 58°22' E 009°33'612.6
2018-May-16 20:30N 58°18' E 009°25'612.4
2018-May-16 20:01N 58°13' E 009°17'612.7
2018-May-16 19:31N 58°08' E 009°10'612.8
2018-May-16 19:01N 58°03' E 009°01'713.3
2018-May-16 18:31N 57°58' E 008°53'612.8
2018-May-16 18:01N 57°57' E 008°41'713.4
2018-May-16 17:30N 57°59' E 008°29'713.6
2018-May-16 17:01N 58°02' E 008°17'713.3
2018-May-16 16:30N 58°04' E 008°05'510.1
2018-May-16 16:00N 58°08' E 007°59'0 0.5
2018-May-16 15:29N 58°08' E 007°60'0 0.0
2018-May-16 14:59N 58°08' E 007°60'0 0.0
2018-May-16 14:29N 58°08' E 007°60'0 0.0
2018-May-16 13:59N 58°08' E 007°60'0 0.0
2018-May-16 13:29N 58°08' E 007°60'0 0.0
2018-May-16 12:59N 58°08' E 007°60'0 0.0
2018-May-16 12:29N 58°08' E 007°60'0 0.0
2018-May-16 11:59N 58°08' E 007°60'0 0.0
2018-May-16 11:29N 58°08' E 007°60'0 0.0
2018-May-16 10:59N 58°08' E 007°60'0 0.0
2018-May-16 10:29N 58°08' E 007°60'0 0.0
2018-May-16 09:59N 58°08' E 007°60'0 0.0
2018-May-16 09:29N 58°08' E 007°60'0 0.0
2018-May-16 08:59N 58°08' E 007°60'0 0.0
2018-May-16 08:29N 58°08' E 007°60'0 0.0
2018-May-16 07:59N 58°08' E 007°60'0 0.0
2018-May-16 07:29N 58°08' E 007°60'0 0.0
2018-May-16 06:59N 58°08' E 007°60'0 0.0
2018-May-16 06:29N 58°08' E 007°60'0 0.0
2018-May-16 05:59N 58°08' E 007°60'0 0.0
2018-May-16 05:29N 58°08' E 007°60'1 1.3
2018-May-16 05:00N 58°08' E 007°60'511.1
2018-May-16 04:30N 58°03' E 008°06'510.1
2018-May-16 04:00N 57°58' E 008°05'612.6
2018-May-16 03:30N 57°56' E 007°54'612.4
2018-May-16 03:00N 57°53' E 007°43'169.1
2018-May-16 03:00N 57°54' E 007°42'611.5 280 / 141015.5 5.4 11.311.114.0
2018-May-16 02:30N 57°52' E 007°32'612.5
2018-May-16 02:00N 57°52' E 007°20'612.0
2018-May-16 01:30N 57°52' E 007°09'612.1
2018-May-16 01:00N 57°53' E 006°58'612.4
2018-May-16 00:30N 57°56' E 006°47'612.4
2018-May-16 00:00N 57°58' E 006°36'5488.3
2018-May-16 00:00N 57°54' E 006°30'613.2 320 / 151017.5 1.1 10.310.112.0
2018-May-15 23:30N 57°60' E 006°25'612.3
2018-May-15 23:00N 58°02' E 006°15'611.8
2018-May-15 22:30N 58°05' E 006°04'713.9
2018-May-15 22:01N 58°08' E 005°53'611.9
2018-May-15 21:30N 58°10' E 005°43'612.4
2018-May-15 21:01N 58°14' E 005°33'612.6
2018-May-15 20:30N 58°17' E 005°22'612.2
2018-May-15 19:59N 58°21' E 005°13'714.8
2018-May-15 19:30N 58°28' E 005°07'815.9
2018-May-15 19:00N 58°35' E 005°13'611.4
2018-May-15 18:30N 58°41' E 005°15'611.0
2018-May-15 18:00N 58°46' E 005°19'510.9
2018-May-15 17:30N 58°50' E 005°27'611.8
2018-May-15 17:00N 58°55' E 005°32'815.9
2018-May-15 16:30N 59°03' E 005°33'611.5
2018-May-15 16:00N 58°59' E 005°42'1 2.4
2018-May-15 15:30N 58°58' E 005°44'0 0.0
2018-May-15 15:00N 58°58' E 005°44'0 0.0
2018-May-15 14:30N 58°58' E 005°44'0 0.0
2018-May-15 14:00N 58°58' E 005°44'0 0.0
2018-May-15 13:30N 58°58' E 005°44'0 0.0
2018-May-15 13:00N 58°58' E 005°44'0 0.0
2018-May-15 12:30N 58°58' E 005°44'0 0.0
2018-May-15 12:00N 58°58' E 005°44'0 0.0
2018-May-15 11:30N 58°58' E 005°44'0 0.0
2018-May-15 11:00N 58°58' E 005°44'0 0.0
2018-May-15 10:30N 58°58' E 005°44'0 0.0
2018-May-15 10:00N 58°58' E 005°44'0 0.0
2018-May-15 09:30N 58°58' E 005°44'0 0.0
2018-May-15 09:00N 58°58' E 005°44'0 0.0
2018-May-15 08:30N 58°58' E 005°44'0 0.0
2018-May-15 08:00N 58°58' E 005°44'0 0.0
2018-May-15 07:30N 58°58' E 005°44'0 0.0
2018-May-15 07:00N 58°58' E 005°44'0 0.0
2018-May-15 06:30N 58°58' E 005°44'0 0.0
2018-May-15 06:00N 58°58' E 005°44'0 0.5
2018-May-15 05:30N 58°59' E 005°44'3 6.0
2018-May-15 04:59N 59°01' E 005°40'817.4
2018-May-15 04:30N 59°06' E 005°28'815.8
2018-May-15 04:00N 59°03' E 005°14'714.8
2018-May-15 03:31N 59°04' E 005°00'918.0
2018-May-15 03:00N 59°10' E 004°47'4936.7
2018-May-15 03:00N 59°06' E 004°48'1325.9 100 / 131019.2 10.810.511.0
2018-May-15 02:30N 59°18' E 004°39'918.4
2018-May-15 01:59N 59°27' E 004°36'918.1
2018-May-15 01:30N 59°36' E 004°34'1119.7
2018-May-15 00:58N 59°46' E 004°32'1020.8
2018-May-15 00:29N 59°56' E 004°30'2820.8
2018-May-14 23:09N 60°24' E 004°25'320.2
2018-May-14 22:59N 60°27' E 004°26'918.2
2018-May-14 22:30N 60°36' E 004°28'917.3
2018-May-14 22:00N 60°44' E 004°32'917.2
2018-May-14 21:30N 60°52' E 004°39'815.5
2018-May-14 21:00N 60°59' E 004°46'918.6
2018-May-14 20:30N 61°05' E 005°02'917.3
2018-May-14 20:00N 61°04' E 005°20'917.7
2018-May-14 19:30N 61°07' E 005°38'918.0
2018-May-14 19:00N 61°08' E 005°56'918.0
2018-May-14 18:30N 61°07' E 006°14'816.9
2018-May-14 18:00N 61°07' E 006°32'713.3
2018-May-14 17:30N 61°10' E 006°44'816.8
2018-May-14 17:00N 61°06' E 006°59'816.7
2018-May-14 16:30N 60°58' E 007°06'611.5
2018-May-14 16:00N 60°52' E 007°08'1 1.3
2018-May-14 15:30N 60°52' E 007°07'0 0.0
2018-May-14 14:59N 60°52' E 007°07'0 0.0
2018-May-14 14:29N 60°52' E 007°07'0 0.0
2018-May-14 13:59N 60°52' E 007°07'0 0.0
2018-May-14 13:29N 60°52' E 007°07'0 0.0
2018-May-14 13:00N 60°52' E 007°07'0 0.0
2018-May-14 12:30N 60°52' E 007°07'0 0.0
2018-May-14 12:00N 60°52' E 007°07'0 0.0
2018-May-14 11:30N 60°52' E 007°07'0 0.0
2018-May-14 11:00N 60°52' E 007°07'0 0.0
2018-May-14 10:29N 60°52' E 007°07'0 0.0
2018-May-14 10:00N 60°52' E 007°07'0 0.0
2018-May-14 09:29N 60°52' E 007°07'0 0.0
2018-May-14 08:59N 60°52' E 007°07'0 0.0
2018-May-14 08:29N 60°52' E 007°07'0 0.0
2018-May-14 07:59N 60°52' E 007°07'0 0.0
2018-May-14 07:29N 60°52' E 007°07'0 0.0
2018-May-14 06:59N 60°52' E 007°07'0 0.0
2018-May-14 06:30N 60°52' E 007°07'0 0.0
2018-May-14 05:59N 60°52' E 007°07'0 0.0
2018-May-14 05:29N 60°52' E 007°07'0 0.0
2018-May-14 04:59N 60°52' E 007°07'1 2.7
2018-May-14 04:30N 60°53' E 007°09'510.7
2018-May-14 04:00N 60°58' E 007°05'3731.0
2018-May-14 04:00N 61°00' E 007°00'612.2 160 / 121019.6 5.4 12.1 3.810.5
2018-May-14 03:30N 61°06' E 006°58'917.1
2018-May-14 03:00N 61°10' E 006°43'713.6
2018-May-14 02:30N 61°07' E 006°31'917.0
2018-May-14 01:59N 61°07' E 006°13'817.3
2018-May-14 01:30N 61°08' E 005°55'817.0
2018-May-14 01:00N 61°07' E 005°38'816.8
2018-May-14 00:30N 61°04' E 005°22'816.5
2018-May-14 00:00N 61°05' E 005°05'917.7
2018-May-13 23:30N 61°00' E 004°49'816.9
2018-May-13 23:00N 60°54' E 004°39'  

Dump ship's entire track history